createdAt,value
2016-03-30T00:00:59.232Z,0
2016-03-30T00:01:59.063Z,0
2016-03-30T00:02:59.190Z,0
2016-03-30T00:03:59.193Z,0
2016-03-30T00:04:59.150Z,0
2016-03-30T00:05:59.120Z,0
2016-03-30T00:06:59.108Z,0
2016-03-30T00:07:59.079Z,0
2016-03-30T00:08:59.051Z,0
2016-03-30T00:09:59.006Z,0
2016-03-30T00:10:59.009Z,0
2016-03-30T00:11:58.950Z,0
2016-03-30T00:12:58.922Z,0
2016-03-30T00:13:58.892Z,0
2016-03-30T00:14:58.863Z,0
2016-03-30T00:15:58.851Z,0
2016-03-30T00:16:58.838Z,0
2016-03-30T00:17:58.794Z,0
2016-03-30T00:18:58.766Z,0
2016-03-30T00:19:58.753Z,0
2016-03-30T00:20:58.724Z,0
2016-03-30T00:21:58.695Z,0
2016-03-30T00:22:58.652Z,0
2016-03-30T00:23:58.638Z,0
2016-03-30T00:24:58.610Z,0
2016-03-30T00:25:58.581Z,0
2016-03-30T00:26:58.568Z,0
2016-03-30T00:27:58.555Z,0
2016-03-30T00:28:58.495Z,0
2016-03-30T00:29:58.482Z,0
2016-03-30T00:30:58.454Z,0
2016-03-30T00:31:58.425Z,0
2016-03-30T00:32:58.396Z,0
2016-03-30T00:33:58.383Z,0
2016-03-30T00:34:58.339Z,0
2016-03-30T00:35:58.342Z,0
2016-03-30T00:36:58.313Z,0
2016-03-30T00:37:58.285Z,0
2016-03-30T00:38:58.241Z,0
2016-03-30T00:39:58.212Z,0
2016-03-30T00:40:58.184Z,0
2016-03-30T00:41:58.186Z,0
2016-03-30T00:42:58.189Z,0
2016-03-30T00:43:58.113Z,0
2016-03-30T00:44:58.226Z,0
2016-03-30T00:45:58.056Z,0
2016-03-30T00:46:58.044Z,0
2016-03-30T00:47:57.999Z,0
2016-03-30T00:48:58.002Z,0
2016-03-30T00:49:57.974Z,0
2016-03-30T00:50:57.930Z,0
2016-03-30T00:51:57.902Z,0
2016-03-30T00:52:57.888Z,0
2016-03-30T00:53:57.843Z,0
2016-03-30T00:54:57.830Z,0
2016-03-30T00:55:57.849Z,0
2016-03-30T00:56:57.790Z,0
2016-03-30T00:57:57.745Z,0
2016-03-30T00:58:57.732Z,0
2016-03-30T00:59:57.719Z,0
2016-03-30T01:00:57.690Z,0
2016-03-30T01:01:57.647Z,0
2016-03-30T01:02:57.618Z,0
2016-03-30T01:03:57.590Z,0
2016-03-30T01:04:57.576Z,0
2016-03-30T01:05:57.564Z,0
2016-03-30T01:06:57.532Z,0
2016-03-30T01:07:57.477Z,0
2016-03-30T01:08:57.438Z,0
2016-03-30T01:09:57.399Z,0
2016-03-30T01:10:57.360Z,0
2016-03-30T01:11:57.338Z,0
2016-03-30T01:12:57.320Z,0
2016-03-30T01:14:02.506Z,0
2016-03-30T01:15:00.958Z,0
2016-03-30T01:16:01.440Z,0
2016-03-30T01:16:57.205Z,0
2016-03-30T01:17:57.144Z,0
2016-03-30T01:18:57.129Z,0
2016-03-30T01:19:57.100Z,0
2016-03-30T01:20:57.069Z,0
2016-03-30T01:21:57.039Z,0
2016-03-30T01:22:57.027Z,0
2016-03-30T01:23:56.997Z,0
2016-03-30T01:24:56.968Z,0
2016-03-30T01:25:56.954Z,0
2016-03-30T01:26:56.911Z,0
2016-03-30T01:27:56.882Z,0
2016-03-30T01:28:56.884Z,0
2016-03-30T01:29:56.903Z,0
2016-03-30T01:30:56.812Z,0
2016-03-30T01:31:56.783Z,0
2016-03-30T01:32:56.755Z,0
2016-03-30T01:33:56.742Z,0
2016-03-30T01:34:56.698Z,0
2016-03-30T01:35:56.669Z,0
2016-03-30T01:36:56.640Z,0
2016-03-30T01:37:56.643Z,0
2016-03-30T01:38:56.599Z,0
2016-03-30T01:39:56.586Z,0
2016-03-30T01:40:56.558Z,0
2016-03-30T01:41:56.529Z,0
2016-03-30T01:42:56.500Z,0
2016-03-30T01:43:56.315Z,0
2016-03-30T01:44:56.538Z,0
2016-03-30T01:45:56.258Z,0
2016-03-30T01:46:56.402Z,0
2016-03-30T01:47:56.373Z,0
2016-03-30T01:48:56.346Z,0
2016-03-30T01:49:56.316Z,0
2016-03-30T01:50:56.288Z,0
2016-03-30T01:51:56.260Z,0
2016-03-30T01:52:56.231Z,0
2016-03-30T01:53:56.217Z,0
2016-03-30T01:54:56.189Z,0
2016-03-30T01:55:56.160Z,0
2016-03-30T01:56:56.148Z,0
2016-03-30T01:57:56.104Z,0
2016-03-30T01:58:56.090Z,0
2016-03-30T01:59:56.045Z,0
2016-03-30T02:00:56.048Z,0
2016-03-30T02:01:56.005Z,0
2016-03-30T02:02:55.992Z,0
2016-03-30T02:03:55.963Z,0
2016-03-30T02:04:55.934Z,0
2016-03-30T02:05:55.906Z,0
2016-03-30T02:06:55.893Z,0
2016-03-30T02:07:55.864Z,0
2016-03-30T02:08:55.836Z,0
2016-03-30T02:09:55.808Z,0
2016-03-30T02:10:55.622Z,0
2016-03-30T02:11:55.750Z,0
2016-03-30T02:12:55.737Z,0
2016-03-30T02:13:55.694Z,0
2016-03-30T02:14:55.696Z,0
2016-03-30T02:15:55.667Z,0
2016-03-30T02:16:55.655Z,0
2016-03-30T02:17:55.594Z,0
2016-03-30T02:18:55.582Z,0
2016-03-30T02:19:55.554Z,0
2016-03-30T02:20:55.540Z,0
2016-03-30T02:21:55.480Z,0
2016-03-30T02:22:55.499Z,0
2016-03-30T02:23:55.470Z,0
2016-03-30T02:24:55.426Z,0
2016-03-30T02:25:55.398Z,0
2016-03-30T02:26:55.369Z,0
2016-03-30T02:27:55.340Z,0
2016-03-30T02:28:55.328Z,0
2016-03-30T02:29:55.331Z,0
2016-03-30T02:30:55.271Z,0
2016-03-30T02:31:55.242Z,0
2016-03-30T02:32:55.245Z,0
2016-03-30T02:33:55.200Z,0
2016-03-30T02:34:55.187Z,0
2016-03-30T02:35:55.159Z,0
2016-03-30T02:36:55.131Z,0
2016-03-30T02:37:55.102Z,0
2016-03-30T02:38:55.073Z,0
2016-03-30T02:39:55.044Z,0
2016-03-30T02:40:55.031Z,0
2016-03-30T02:41:55.003Z,0
2016-03-30T02:42:54.975Z,0
2016-03-30T02:43:54.961Z,0
2016-03-30T02:44:54.949Z,0
2016-03-30T02:45:54.905Z,0
2016-03-30T02:46:54.860Z,0
2016-03-30T02:47:54.847Z,0
2016-03-30T02:48:54.818Z,0
2016-03-30T02:49:54.806Z,0
2016-03-30T02:50:54.777Z,0
2016-03-30T02:51:54.749Z,0
2016-03-30T02:52:54.721Z,0
2016-03-30T02:53:54.707Z,0
2016-03-30T02:54:54.679Z,0
2016-03-30T02:55:54.651Z,0
2016-03-30T02:56:54.621Z,0
2016-03-30T02:57:54.594Z,0
2016-03-30T02:58:54.565Z,0
2016-03-30T02:59:54.567Z,0
2016-03-30T03:00:54.539Z,0
2016-03-30T03:01:54.495Z,0
2016-03-30T03:02:54.497Z,0
2016-03-30T03:03:54.437Z,0
2016-03-30T03:04:54.425Z,0
2016-03-30T03:05:54.396Z,0
2016-03-30T03:06:54.383Z,0
2016-03-30T03:07:54.354Z,0
2016-03-30T03:08:54.326Z,0
2016-03-30T03:09:54.297Z,0
2016-03-30T03:10:54.269Z,0
2016-03-30T03:11:54.272Z,0
2016-03-30T03:12:54.211Z,0
2016-03-30T03:13:54.199Z,0
2016-03-30T03:14:54.217Z,0
2016-03-30T03:15:54.142Z,0
2016-03-30T03:16:54.129Z,0
2016-03-30T03:17:54.086Z,0
2016-03-30T03:18:54.071Z,0
2016-03-30T03:19:54.059Z,0
2016-03-30T03:20:54.015Z,0
2016-03-30T03:21:53.986Z,0
2016-03-30T03:22:53.974Z,0
2016-03-30T03:23:53.961Z,0
2016-03-30T03:24:53.916Z,0
2016-03-30T03:25:53.919Z,0
2016-03-30T03:26:53.891Z,0
2016-03-30T03:27:53.846Z,0
2016-03-30T03:28:53.818Z,0
2016-03-30T03:29:53.805Z,0
2016-03-30T03:30:53.776Z,0
2016-03-30T03:31:53.747Z,0
2016-03-30T03:32:53.718Z,0
2016-03-30T03:33:53.690Z,0
2016-03-30T03:34:53.677Z,0
2016-03-30T03:35:53.648Z,0
2016-03-30T03:36:53.637Z,0
2016-03-30T03:37:53.607Z,0
2016-03-30T03:38:53.579Z,0
2016-03-30T03:39:53.566Z,0
2016-03-30T03:40:53.537Z,0
2016-03-30T03:41:53.493Z,0
2016-03-30T03:42:53.480Z,0
2016-03-30T03:43:53.451Z,0
2016-03-30T03:44:53.423Z,0
2016-03-30T03:45:53.394Z,0
2016-03-30T03:46:53.367Z,0
2016-03-30T03:47:53.353Z,0
2016-03-30T03:48:53.325Z,0
2016-03-30T03:49:53.297Z,0
2016-03-30T03:50:53.252Z,0
2016-03-30T03:51:53.255Z,0
2016-03-30T03:52:53.225Z,0
2016-03-30T03:53:53.197Z,0
2016-03-30T03:54:53.169Z,0
2016-03-30T03:55:53.140Z,0
2016-03-30T03:56:53.127Z,0
2016-03-30T03:57:53.098Z,0
2016-03-30T03:58:53.070Z,0
2016-03-30T03:59:52.885Z,0
2016-03-30T04:00:53.013Z,0
2016-03-30T04:01:52.984Z,0
2016-03-30T04:02:52.956Z,0
2016-03-30T04:03:52.943Z,0
2016-03-30T04:04:52.914Z,0
2016-03-30T04:05:52.901Z,0
2016-03-30T04:06:52.857Z,0
2016-03-30T04:07:52.845Z,0
2016-03-30T04:08:52.815Z,0
2016-03-30T04:09:52.787Z,0
2016-03-30T04:10:52.774Z,0
2016-03-30T04:11:52.730Z,0
2016-03-30T04:12:52.717Z,0
2016-03-30T04:13:52.703Z,0
2016-03-30T04:14:52.659Z,0
2016-03-30T04:15:52.616Z,0
2016-03-30T04:16:52.618Z,0
2016-03-30T04:17:52.590Z,0
2016-03-30T04:18:52.561Z,0
2016-03-30T04:19:52.548Z,0
2016-03-30T04:20:52.486Z,0
2016-03-30T04:21:52.473Z,0
2016-03-30T04:22:52.461Z,0
2016-03-30T04:23:52.431Z,0
2016-03-30T04:24:52.403Z,0
2016-03-30T04:25:52.374Z,0
2016-03-30T04:26:52.346Z,0
2016-03-30T04:27:52.317Z,0
2016-03-30T04:28:52.305Z,0
2016-03-30T04:29:52.261Z,0
2016-03-30T04:30:52.232Z,0
2016-03-30T04:31:52.219Z,0
2016-03-30T04:32:52.206Z,0
2016-03-30T04:33:52.162Z,0
2016-03-30T04:34:52.133Z,0
2016-03-30T04:35:52.135Z,0
2016-03-30T04:36:52.091Z,0
2016-03-30T04:37:52.063Z,0
2016-03-30T04:38:52.034Z,0
2016-03-30T04:39:52.006Z,0
2016-03-30T04:40:51.992Z,0
2016-03-30T04:41:51.979Z,0
2016-03-30T04:42:51.920Z,0
2016-03-30T04:43:51.906Z,0
2016-03-30T04:44:51.910Z,0
2016-03-30T04:45:51.865Z,0
2016-03-30T04:46:51.822Z,0
2016-03-30T04:47:51.793Z,0
2016-03-30T04:48:51.781Z,4
2016-03-30T04:49:51.751Z,0
2016-03-30T04:50:51.708Z,4
2016-03-30T04:51:51.694Z,4
2016-03-30T04:52:51.666Z,4
2016-03-30T04:53:51.653Z,4
2016-03-30T04:54:51.608Z,8
2016-03-30T04:55:51.611Z,8
2016-03-30T04:56:51.566Z,8
2016-03-30T04:57:51.554Z,8
2016-03-30T04:58:51.525Z,16
2016-03-30T04:59:51.481Z,20
2016-03-30T05:00:51.469Z,12
2016-03-30T05:01:51.440Z,16
2016-03-30T05:02:51.411Z,24
2016-03-30T05:03:51.399Z,48
2016-03-30T05:04:51.370Z,68
2016-03-30T05:05:51.326Z,88
2016-03-30T05:06:51.296Z,116
2016-03-30T05:07:51.284Z,152
2016-03-30T05:08:51.271Z,176
2016-03-30T05:09:51.227Z,200
2016-03-30T05:10:51.199Z,224
2016-03-30T05:11:51.185Z,236
2016-03-30T05:12:51.142Z,252
2016-03-30T05:13:51.129Z,276
2016-03-30T05:14:51.116Z,312
2016-03-30T05:15:51.087Z,340
2016-03-30T05:16:51.059Z,364
2016-03-30T05:17:51.030Z,372
2016-03-30T05:18:51.001Z,376
2016-03-30T05:19:50.972Z,416
2016-03-30T05:20:50.928Z,468
2016-03-30T05:21:50.931Z,468
2016-03-30T05:22:50.902Z,492
2016-03-30T05:23:50.858Z,560
2016-03-30T05:24:50.845Z,644
2016-03-30T05:25:50.817Z,740
2016-03-30T05:26:50.789Z,840
2016-03-30T05:27:50.760Z,888
2016-03-30T05:28:50.763Z,928
2016-03-30T05:29:50.719Z,956
2016-03-30T05:30:50.690Z,980
2016-03-30T05:31:50.677Z,1056
2016-03-30T05:32:50.632Z,1120
2016-03-30T05:33:50.604Z,1140
2016-03-30T05:34:50.591Z,1124
2016-03-30T05:35:50.578Z,1144
2016-03-30T05:36:50.549Z,1332
2016-03-30T05:37:50.520Z,1448
2016-03-30T05:38:50.476Z,1348
2016-03-30T05:39:50.448Z,1272
2016-03-30T05:40:50.435Z,1224
2016-03-30T05:41:50.407Z,1212
2016-03-30T05:42:50.379Z,1296
2016-03-30T05:43:50.365Z,1428
2016-03-30T05:44:50.337Z,1648
2016-03-30T05:45:50.309Z,1720
2016-03-30T05:46:50.279Z,1724
2016-03-30T05:47:50.251Z,1884
2016-03-30T05:48:50.238Z,2036
2016-03-30T05:49:50.178Z,2036
2016-03-30T05:50:50.165Z,1984
2016-03-30T05:51:50.136Z,2060
2016-03-30T05:52:50.125Z,2128
2016-03-30T05:53:50.095Z,2180
2016-03-30T05:54:50.067Z,2240
2016-03-30T05:55:50.054Z,2284
2016-03-30T05:56:50.010Z,2252
2016-03-30T05:57:49.981Z,2256
2016-03-30T05:58:49.968Z,2116
2016-03-30T05:59:49.783Z,2084
2016-03-30T06:00:49.911Z,2284
2016-03-30T06:01:49.914Z,2700
2016-03-30T06:02:49.869Z,2972
2016-03-30T06:03:49.841Z,3228
2016-03-30T06:04:49.812Z,3288
2016-03-30T06:05:49.784Z,3108
2016-03-30T06:06:49.771Z,2724
2016-03-30T06:07:49.743Z,2372
2016-03-30T06:08:49.714Z,2292
2016-03-30T06:09:49.685Z,2484
2016-03-30T06:10:49.657Z,2820
2016-03-30T06:11:49.629Z,3128
2016-03-30T06:12:49.599Z,3312
2016-03-30T06:13:49.571Z,3508
2016-03-30T06:14:49.573Z,3900
2016-03-30T06:15:49.529Z,4032
2016-03-30T06:16:49.501Z,4156
2016-03-30T06:17:49.487Z,4348
2016-03-30T06:18:49.459Z,4336
2016-03-30T06:19:49.430Z,4516
2016-03-30T06:20:49.386Z,5332
2016-03-30T06:21:49.373Z,6112
2016-03-30T06:22:49.360Z,6024
2016-03-30T06:23:49.332Z,5784
2016-03-30T06:24:49.303Z,5672
2016-03-30T06:25:49.275Z,5668
2016-03-30T06:26:49.247Z,6016
2016-03-30T06:27:49.219Z,6656
2016-03-30T06:28:49.205Z,6984
2016-03-30T06:29:49.177Z,7176
2016-03-30T06:30:49.163Z,7536
2016-03-30T06:31:48.979Z,7576
2016-03-30T06:32:49.107Z,7264
2016-03-30T06:33:49.077Z,6728
2016-03-30T06:34:49.050Z,6284
2016-03-30T06:35:49.021Z,6720
2016-03-30T06:36:48.993Z,7060
2016-03-30T06:37:48.980Z,7192
2016-03-30T06:38:48.951Z,6992
2016-03-30T06:39:48.922Z,6584
2016-03-30T06:40:48.893Z,6616
2016-03-30T06:41:48.881Z,7196
2016-03-30T06:42:48.868Z,7620
2016-03-30T06:43:48.870Z,7316
2016-03-30T06:44:48.795Z,6792
2016-03-30T06:45:48.766Z,6708
2016-03-30T06:46:48.754Z,6976
2016-03-30T06:47:48.740Z,7376
2016-03-30T06:48:48.696Z,7848
2016-03-30T06:49:48.668Z,8192
2016-03-30T06:50:48.655Z,8464
2016-03-30T06:51:48.642Z,9000
2016-03-30T06:52:48.597Z,9168
2016-03-30T06:53:48.584Z,9172
2016-03-30T06:54:48.572Z,8964
2016-03-30T06:55:48.558Z,8576
2016-03-30T06:56:48.499Z,8260
2016-03-30T06:57:48.470Z,8296
2016-03-30T06:58:48.457Z,8616
2016-03-30T06:59:48.445Z,9044
2016-03-30T07:00:48.400Z,9156
2016-03-30T07:01:48.403Z,8672
2016-03-30T07:02:48.359Z,8040
2016-03-30T07:03:48.315Z,7700
2016-03-30T07:04:48.302Z,7660
2016-03-30T07:05:48.289Z,8004
2016-03-30T07:06:48.260Z,8540
2016-03-30T07:07:48.608Z,8776
2016-03-30T07:08:48.204Z,8980
2016-03-30T07:09:48.207Z,9372
2016-03-30T07:10:48.147Z,9840
2016-03-30T07:11:48.133Z,10304
2016-03-30T07:12:48.121Z,10944
2016-03-30T07:13:48.108Z,11352
2016-03-30T07:14:48.080Z,11264
2016-03-30T07:15:48.052Z,10948
2016-03-30T07:16:48.038Z,10992
2016-03-30T07:17:47.979Z,11044
2016-03-30T07:18:47.950Z,11132
2016-03-30T07:19:47.937Z,11152
2016-03-30T07:20:47.908Z,11736
2016-03-30T07:21:47.910Z,11740
2016-03-30T07:22:47.867Z,11188
2016-03-30T07:23:47.838Z,10968
2016-03-30T07:24:47.825Z,11144
2016-03-30T07:25:47.812Z,11456
2016-03-30T07:26:47.784Z,11948
2016-03-30T07:27:47.756Z,11480
2016-03-30T07:28:47.743Z,10964
2016-03-30T07:29:47.698Z,10808
2016-03-30T07:30:47.685Z,10720
2016-03-30T07:31:47.657Z,11188
2016-03-30T07:32:47.628Z,11836
2016-03-30T07:33:47.615Z,12956
2016-03-30T07:34:47.602Z,13464
2016-03-30T07:35:47.573Z,14036
2016-03-30T07:36:47.530Z,14448
2016-03-30T07:37:47.548Z,14332
2016-03-30T07:38:47.504Z,14296
2016-03-30T07:39:47.459Z,14404
2016-03-30T07:40:47.447Z,14968
2016-03-30T07:41:47.433Z,14824
2016-03-30T07:42:47.421Z,14516
2016-03-30T07:43:47.377Z,13736
2016-03-30T07:44:47.364Z,13144
2016-03-30T07:45:47.336Z,13160
2016-03-30T07:46:47.307Z,13224
2016-03-30T07:47:47.278Z,13612
2016-03-30T07:48:47.249Z,14116
2016-03-30T07:49:47.252Z,13996
2016-03-30T07:50:47.224Z,13036
2016-03-30T07:51:47.196Z,13152
2016-03-30T07:52:47.166Z,13740
2016-03-30T07:53:47.153Z,14100
2016-03-30T07:54:47.124Z,13816
2016-03-30T07:55:47.096Z,13352
2016-03-30T07:56:47.068Z,12724
2016-03-30T07:57:47.070Z,12592
2016-03-30T07:58:47.026Z,13000
2016-03-30T07:59:47.013Z,13712
2016-03-30T08:00:47.126Z,14112
2016-03-30T08:01:46.956Z,13828
2016-03-30T08:02:46.943Z,13784
2016-03-30T08:03:46.931Z,14100
2016-03-30T08:04:46.839Z,14324
2016-03-30T08:05:46.977Z,14628
2016-03-30T08:06:46.686Z,14196
2016-03-30T08:07:46.820Z,13920
2016-03-30T08:08:47.063Z,14076
2016-03-30T08:09:47.037Z,13736
2016-03-30T08:10:46.744Z,13012
2016-03-30T08:11:46.731Z,12072
2016-03-30T08:12:46.687Z,11684
2016-03-30T08:13:46.674Z,11364
2016-03-30T08:14:46.645Z,11296
2016-03-30T08:15:46.492Z,11384
2016-03-30T08:16:46.619Z,11368
2016-03-30T08:17:46.592Z,11832
2016-03-30T08:18:46.547Z,11192
2016-03-30T08:19:46.534Z,10596
2016-03-30T08:20:46.505Z,10168
2016-03-30T08:21:46.539Z,10488
2016-03-30T08:22:46.464Z,10404
2016-03-30T08:23:46.435Z,10144
2016-03-30T08:24:46.408Z,10116
2016-03-30T08:25:46.394Z,10104
2016-03-30T08:26:46.397Z,10244
2016-03-30T08:27:46.415Z,10460
2016-03-30T08:28:46.355Z,10360
2016-03-30T08:29:46.311Z,10292
2016-03-30T08:30:46.455Z,10388
2016-03-30T08:31:46.286Z,10548
2016-03-30T08:32:46.242Z,10636
2016-03-30T08:33:46.213Z,10784
2016-03-30T08:34:46.185Z,11212
2016-03-30T08:35:46.162Z,11388
2016-03-30T08:36:46.164Z,11528
2016-03-30T08:37:46.120Z,11792
2016-03-30T08:38:46.092Z,11580
2016-03-30T08:39:46.078Z,11672
2016-03-30T08:40:46.050Z,11972
2016-03-30T08:41:46.037Z,11612
2016-03-30T08:42:46.008Z,11788
2016-03-30T08:43:45.987Z,12196
2016-03-30T08:44:45.959Z,11780
2016-03-30T08:45:46.101Z,11096
2016-03-30T08:46:45.917Z,10868
2016-03-30T08:47:45.904Z,10908
2016-03-30T08:48:45.876Z,10332
2016-03-30T08:49:45.847Z,10476
2016-03-30T08:50:45.818Z,10244
2016-03-30T08:51:45.806Z,10516
2016-03-30T08:52:45.778Z,12308
2016-03-30T08:53:45.764Z,11896
2016-03-30T08:54:45.736Z,11464
2016-03-30T08:55:45.707Z,10868
2016-03-30T08:56:45.679Z,11556
2016-03-30T08:57:45.666Z,11464
2016-03-30T08:58:45.652Z,12408
2016-03-30T08:59:45.625Z,12916
2016-03-30T09:00:45.642Z,12264
2016-03-30T09:01:45.567Z,12276
2016-03-30T09:02:45.554Z,12344
2016-03-30T09:03:45.369Z,12200
2016-03-30T09:04:45.513Z,11868
2016-03-30T09:05:45.484Z,12304
2016-03-30T09:06:45.455Z,12172
2016-03-30T09:07:45.427Z,12132
2016-03-30T09:08:45.429Z,12108
2016-03-30T09:09:45.386Z,12180
2016-03-30T09:10:45.357Z,12380
2016-03-30T09:11:45.344Z,12492
2016-03-30T09:12:45.332Z,13104
2016-03-30T09:13:45.303Z,14124
2016-03-30T09:14:45.899Z,13856
2016-03-30T09:15:45.340Z,12420
2016-03-30T09:16:45.233Z,13036
2016-03-30T09:17:45.220Z,13596
2016-03-30T09:18:45.191Z,15460
2016-03-30T09:19:45.162Z,14824
2016-03-30T09:20:45.150Z,16768
2016-03-30T09:21:45.137Z,20992
2016-03-30T09:22:45.109Z,19392
2016-03-30T09:23:45.079Z,18816
2016-03-30T09:24:45.050Z,18236
2016-03-30T09:25:45.022Z,14940
2016-03-30T09:26:45.010Z,13620
2016-03-30T09:27:44.997Z,14192
2016-03-30T09:28:44.967Z,17800
2016-03-30T09:29:44.970Z,19008
2016-03-30T09:30:45.161Z,14364
2016-03-30T09:31:44.898Z,11884
2016-03-30T09:32:44.869Z,12028
2016-03-30T09:33:44.856Z,11300
2016-03-30T09:34:44.828Z,12116
2016-03-30T09:35:44.800Z,11136
2016-03-30T09:36:44.802Z,7728
2016-03-30T09:37:44.774Z,7248
2016-03-30T09:38:44.744Z,8324
2016-03-30T09:39:44.716Z,8480
2016-03-30T09:40:44.688Z,9704
2016-03-30T09:41:44.675Z,9468
2016-03-30T09:42:44.677Z,8652
2016-03-30T09:43:44.633Z,11504
2016-03-30T09:44:44.621Z,10332
2016-03-30T09:45:44.888Z,10172
2016-03-30T09:46:44.563Z,12720
2016-03-30T09:47:44.551Z,14844
2016-03-30T09:48:44.537Z,17368
2016-03-30T09:49:44.509Z,18784
2016-03-30T09:50:44.480Z,16684
2016-03-30T09:51:44.452Z,16328
2016-03-30T09:52:44.439Z,13980
2016-03-30T09:53:44.410Z,14888
2016-03-30T09:54:44.398Z,15744
2016-03-30T09:55:44.384Z,15856
2016-03-30T09:56:44.340Z,12972
2016-03-30T09:57:44.328Z,13260
2016-03-30T09:58:44.314Z,14720
2016-03-30T09:59:44.286Z,13712
2016-03-30T10:00:44.319Z,11600
2016-03-30T10:01:44.245Z,9672
2016-03-30T10:02:44.216Z,9124
2016-03-30T10:03:44.203Z,9740
2016-03-30T10:04:44.236Z,12476
2016-03-30T10:05:44.161Z,14092
2016-03-30T10:06:44.133Z,14544
2016-03-30T10:07:44.120Z,13584
2016-03-30T10:08:44.092Z,14756
2016-03-30T10:09:44.063Z,13832
2016-03-30T10:10:44.049Z,13628
2016-03-30T10:11:44.021Z,13416
2016-03-30T10:12:44.005Z,13900
2016-03-30T10:13:43.983Z,13356
2016-03-30T10:14:43.943Z,13540
2016-03-30T10:15:43.827Z,9696
